Time;durP1;ratioP1;P1;durP2;ratioP2;P2;SDS_P1;SDS_P2;PMS_P1;PMS_P2;Temp;Humidity;BMP_temperature;BMP_pressure;BME280_temperature;BME280_humidity;BME280_pressure;Samples;Min_cycle;Max_cycle;Signal;HPM_P1;HPM_P2
2021/08/06 00:02:04;;;;;;;2.22;1.20;;;;;;;;;;5061451;28;20059;-80
2021/08/06 00:04:30;;;;;;;0.90;0.90;;;;;;;;;;5073737;28;20036;-78
2021/08/06 00:06:56;;;;;;;1.20;1.10;;;;;;;;;;5076989;28;20025;-79
2021/08/06 00:09:22;;;;;;;1.13;1.02;;;;;;;;;;5060617;28;20186;-80
2021/08/06 00:11:49;;;;;;;0.98;0.90;;;;;;;;;;5057412;28;20039;-80
2021/08/06 00:14:15;;;;;;;0.73;0.73;;;;;;;;;;5058431;28;20515;-80
2021/08/06 00:16:41;;;;;;;2.45;1.10;;;;;;;;;;5061652;28;20082;-80
2021/08/06 00:19:07;;;;;;;0.80;0.80;;;;;;;;;;5077849;28;20385;-80
2021/08/06 00:21:33;;;;;;;0.93;0.93;;;;;;;;;;5078341;28;20031;-81
2021/08/06 00:23:59;;;;;;;0.85;0.80;;;;;;;;;;5063047;28;20477;-81
2021/08/06 00:26:25;;;;;;;0.93;0.93;;;;;;;;;;5067615;28;20057;-79
2021/08/06 00:28:51;;;;;;;0.70;0.70;;;;;;;;;;5064999;28;20025;-80
2021/08/06 00:31:17;;;;;;;0.80;0.80;;;;;;;;;;5062924;28;20059;-80
2021/08/06 00:33:43;;;;;;;1.00;0.90;;;;;;;;;;5061631;28;20051;-81
2021/08/06 00:36:10;;;;;;;0.80;0.80;;;;;;;;;;5059573;28;20029;-80
2021/08/06 00:38:36;;;;;;;4.30;0.90;;;;;;;;;;5057222;28;20020;-81
2021/08/06 00:41:02;;;;;;;1.10;1.00;;;;;;;;;;5061916;28;20033;-80
2021/08/06 00:43:30;;;;;;;1.17;1.08;;;;;;;;;;5059955;28;20025;-81
2021/08/06 00:45:56;;;;;;;1.17;1.08;;;;;;;;;;5058444;28;20025;-79
2021/08/06 00:48:23;;;;;;;0.82;0.80;;;;;;;;;;5069756;28;20483;-79
2021/08/06 00:50:49;;;;;;;1.13;0.95;;;;;;;;;;5075670;28;20032;-79
2021/08/06 00:53:15;;;;;;;0.90;0.90;;;;;;;;;;5064880;28;20463;-78
2021/08/06 00:55:41;;;;;;;1.20;1.10;;;;;;;;;;5068403;28;20025;-78
2021/08/06 00:58:08;;;;;;;1.02;0.90;;;;;;;;;;5055137;28;20029;-79
2021/08/06 01:00:34;;;;;;;0.80;0.80;;;;;;;;;;5047030;28;20043;-79
2021/08/06 01:03:06;;;;;;;1.10;1.00;;;;;;;;;;5052497;28;20056;-80
2021/08/06 01:05:32;;;;;;;;;;;;;;;;;;5050499;28;20126;-79
2021/08/06 01:08:07;;;;;;;1.10;1.10;;;;;;;;;;5055871;28;19967;-79
2021/08/06 01:10:37;;;;;;;1.08;0.93;;;;;;;;;;5058737;28;20021;-80
2021/08/06 01:13:07;;;;;;;1.25;1.00;;;;;;;;;;5043918;28;20033;-80
2021/08/06 01:15:33;;;;;;;1.60;1.20;;;;;;;;;;5037853;28;20021;-80
2021/08/06 01:18:02;;;;;;;1.00;1.00;;;;;;;;;;5074459;28;20039;-78
2021/08/06 01:20:36;;;;;;;1.15;1.05;;;;;;;;;;5061092;28;20029;-80
2021/08/06 01:23:14;;;;;;;0.82;0.82;;;;;;;;;;5048632;28;20034;-80
2021/08/06 01:25:47;;;;;;;1.25;0.90;;;;;;;;;;5038855;28;20025;-80
2021/08/06 01:28:18;;;;;;;0.85;0.85;;;;;;;;;;5052423;28;20603;-80
2021/08/06 01:30:44;;;;;;;0.95;0.95;;;;;;;;;;5055453;28;20025;-79
2021/08/06 01:33:11;;;;;;;1.00;1.00;;;;;;;;;;5052286;28;20190;-80
2021/08/06 01:35:37;;;;;;;0.82;0.70;;;;;;;;;;5037637;28;20047;-80
2021/08/06 01:38:03;;;;;;;0.60;0.60;;;;;;;;;;5048276;28;20036;-80
2021/08/06 01:40:33;;;;;;;1.00;1.00;;;;;;;;;;5059993;28;20021;-80
2021/08/06 01:42:59;;;;;;;1.17;1.08;;;;;;;;;;5058673;28;20120;-79
2021/08/06 01:45:27;;;;;;;1.80;1.70;;;;;;;;;;5059688;28;20056;-80
2021/08/06 01:47:53;;;;;;;3.00;2.63;;;;;;;;;;5064015;28;20056;-79
2021/08/06 01:50:25;;;;;;;5.95;3.75;;;;;;;;;;5033993;28;20029;-80
2021/08/06 01:52:59;;;;;;;5.97;4.35;;;;;;;;;;5037912;28;20017;-80
2021/08/06 01:55:26;;;;;;;5.35;3.72;;;;;;;;;;5056158;28;20036;-79
2021/08/06 01:57:52;;;;;;;4.75;3.85;;;;;;;;;;5055617;28;20083;-79
2021/08/06 02:00:18;;;;;;;5.75;3.28;;;;;;;;;;5053668;28;20523;-79
2021/08/06 02:02:45;;;;;;;3.58;2.47;;;;;;;;;;5054734;28;20043;-79
2021/08/06 02:05:11;;;;;;;4.13;2.80;;;;;;;;;;5056773;28;20029;-80
2021/08/06 02:07:37;;;;;;;2.55;2.35;;;;;;;;;;5055258;28;20114;-78
2021/08/06 02:10:04;;;;;;;2.58;2.25;;;;;;;;;;5055295;28;20114;-80
2021/08/06 02:12:30;;;;;;;1.83;1.70;;;;;;;;;;5055947;28;20056;-80
2021/08/06 02:14:56;;;;;;;2.38;2.05;;;;;;;;;;5056098;28;20027;-80
2021/08/06 02:17:23;;;;;;;1.30;1.20;;;;;;;;;;5061711;28;20028;-79
2021/08/06 02:19:49;;;;;;;1.65;1.55;;;;;;;;;;5066502;28;20319;-78
2021/08/06 02:22:15;;;;;;;1.60;1.35;;;;;;;;;;5074185;28;20115;-79
2021/08/06 02:24:43;;;;;;;1.30;1.20;;;;;;;;;;5055192;28;20428;-80
2021/08/06 02:27:13;;;;;;;1.52;1.42;;;;;;;;;;5058000;28;20498;-80
2021/08/06 02:29:39;;;;;;;1.90;1.73;;;;;;;;;;5058202;28;20047;-81
2021/08/06 02:32:06;;;;;;;1.27;0.95;;;;;;;;;;5056521;28;20028;-80
2021/08/06 02:34:33;;;;;;;1.10;1.10;;;;;;;;;;5054692;28;20028;-81
2021/08/06 02:36:59;;;;;;;1.42;1.33;;;;;;;;;;5056831;28;20056;-81
2021/08/06 02:39:27;;;;;;;1.73;1.50;;;;;;;;;;5054053;28;20044;-80
2021/08/06 02:41:56;;;;;;;0.90;0.90;;;;;;;;;;5056941;28;20090;-82
2021/08/06 02:44:22;;;;;;;1.48;1.38;;;;;;;;;;5056804;28;20107;-80
2021/08/06 02:46:48;;;;;;;1.40;1.30;;;;;;;;;;5063387;28;20085;-79
2021/08/06 02:49:14;;;;;;;1.27;1.17;;;;;;;;;;5072410;28;20029;-79
2021/08/06 02:51:40;;;;;;;1.25;1.20;;;;;;;;;;5061781;28;20053;-76
2021/08/06 02:54:06;;;;;;;1.75;1.20;;;;;;;;;;5074203;28;20033;-78
2021/08/06 02:56:33;;;;;;;1.65;1.20;;;;;;;;;;5065199;28;20040;-80
2021/08/06 02:58:59;;;;;;;1.45;1.10;;;;;;;;;;5055167;28;20040;-80
2021/08/06 03:01:25;;;;;;;0.95;0.95;;;;;;;;;;5053752;28;20033;-80
2021/08/06 03:03:51;;;;;;;1.23;1.05;;;;;;;;;;5055138;28;20110;-80
2021/08/06 03:06:17;;;;;;;1.95;1.13;;;;;;;;;;5055300;28;20020;-81
2021/08/06 03:08:43;;;;;;;1.48;1.20;;;;;;;;;;5054767;28;20028;-80
2021/08/06 03:11:09;;;;;;;1.20;1.10;;;;;;;;;;5056212;28;20433;-81
2021/08/06 03:13:36;;;;;;;1.17;1.05;;;;;;;;;;5054328;28;20108;-81
2021/08/06 03:16:02;;;;;;;1.02;0.98;;;;;;;;;;5056636;28;20052;-81
2021/08/06 03:18:28;;;;;;;1.33;1.23;;;;;;;;;;5066873;28;20048;-81
2021/08/06 03:20:55;;;;;;;0.93;0.93;;;;;;;;;;5065119;28;20025;-81
2021/08/06 03:23:21;;;;;;;1.35;1.25;;;;;;;;;;5054308;28;20115;-81
2021/08/06 03:25:47;;;;;;;1.33;1.23;;;;;;;;;;5054679;28;20039;-81
2021/08/06 03:28:13;;;;;;;0.93;0.80;;;;;;;;;;5056051;28;20028;-80
2021/08/06 03:30:40;;;;;;;1.77;1.33;;;;;;;;;;5055484;28;20017;-81
2021/08/06 03:33:06;;;;;;;1.33;1.08;;;;;;;;;;5056043;28;20023;-80
2021/08/06 03:35:33;;;;;;;1.15;1.08;;;;;;;;;;5055946;28;20025;-79
2021/08/06 03:37:59;;;;;;;0.90;0.90;;;;;;;;;;5054809;28;20021;-79
2021/08/06 03:40:25;;;;;;;0.82;0.82;;;;;;;;;;5054963;28;20110;-79
2021/08/06 03:42:51;;;;;;;1.10;0.90;;;;;;;;;;5060207;28;20024;-79
2021/08/06 03:45:17;;;;;;;1.33;1.23;;;;;;;;;;5060236;28;20029;-80
2021/08/06 03:47:43;;;;;;;0.98;0.98;;;;;;;;;;5065883;28;20029;-80
2021/08/06 03:50:09;;;;;;;0.95;0.95;;;;;;;;;;5074911;28;20031;-80
2021/08/06 03:52:35;;;;;;;1.27;1.17;;;;;;;;;;5056915;28;20078;-80
2021/08/06 03:55:02;;;;;;;1.10;1.00;;;;;;;;;;5057579;28;20052;-78
2021/08/06 03:57:28;;;;;;;1.13;1.10;;;;;;;;;;5061538;28;20028;-77
2021/08/06 04:00:11;;;;;;;2.42;1.65;;;;;;;;;;5062492;28;20032;-81
2021/08/06 04:02:37;;;;;;;1.20;1.10;;;;;;;;;;5077194;28;20496;-78
2021/08/06 04:05:04;;;;;;;1.70;1.60;;;;;;;;;;5062673;28;20453;-80
2021/08/06 04:07:30;;;;;;;1.20;1.10;;;;;;;;;;5059039;28;20052;-81
2021/08/06 04:09:56;;;;;;;1.48;1.00;;;;;;;;;;5046932;28;20017;-80
2021/08/06 04:12:22;;;;;;;1.42;1.20;;;;;;;;;;5072774;28;20116;-80
2021/08/06 04:14:48;;;;;;;1.67;1.58;;;;;;;;;;5076146;28;20072;-79
2021/08/06 04:17:14;;;;;;;1.23;1.05;;;;;;;;;;5068030;28;20025;-80
2021/08/06 04:19:40;;;;;;;1.88;1.30;;;;;;;;;;5069311;28;20100;-81
2021/08/06 04:22:06;;;;;;;1.00;1.00;;;;;;;;;;5062124;28;20032;-80
2021/08/06 04:24:32;;;;;;;1.35;1.25;;;;;;;;;;5055149;28;20055;-79
2021/08/06 04:26:58;;;;;;;2.58;1.00;;;;;;;;;;5042895;28;20036;-81
2021/08/06 04:29:25;;;;;;;2.50;1.40;;;;;;;;;;5046449;28;20032;-80
2021/08/06 04:31:51;;;;;;;1.35;1.25;;;;;;;;;;5106520;22;20037;-82
2021/08/06 04:34:17;;;;;;;2.67;1.92;;;;;;;;;;5072925;28;20029;-83
2021/08/06 04:36:43;;;;;;;1.73;1.63;;;;;;;;;;5069243;28;20119;-82
2021/08/06 04:39:09;;;;;;;1.10;1.02;;;;;;;;;;5069871;28;20036;-82
2021/08/06 04:41:35;;;;;;;1.27;1.10;;;;;;;;;;5070874;28;20051;-82
2021/08/06 04:44:01;;;;;;;1.35;1.02;;;;;;;;;;5070393;28;20036;-82
2021/08/06 04:46:27;;;;;;;0.95;0.95;;;;;;;;;;5075125;28;20036;-82
2021/08/06 04:48:53;;;;;;;1.23;1.10;;;;;;;;;;5078290;28;20531;-82
2021/08/06 04:51:19;;;;;;;1.48;1.30;;;;;;;;;;5068660;28;20100;-82
2021/08/06 04:53:45;;;;;;;1.13;1.02;;;;;;;;;;5067806;28;20025;-82
2021/08/06 04:56:11;;;;;;;2.55;1.10;;;;;;;;;;5063072;28;20021;-82
2021/08/06 04:58:38;;;;;;;1.10;1.00;;;;;;;;;;5064896;28;20205;-82
2021/08/06 05:01:04;;;;;;;1.30;1.20;;;;;;;;;;5068858;28;20033;-83
2021/08/06 05:03:30;;;;;;;0.70;0.70;;;;;;;;;;5064256;28;20146;-82
2021/08/06 05:05:56;;;;;;;1.10;0.70;;;;;;;;;;5073623;28;20032;-82
2021/08/06 05:08:22;;;;;;;0.70;0.70;;;;;;;;;;5064790;28;20136;-83
2021/08/06 05:10:48;;;;;;;0.73;0.73;;;;;;;;;;5065538;28;20032;-83
2021/08/06 05:13:14;;;;;;;1.00;0.90;;;;;;;;;;5065482;28;20067;-83
2021/08/06 05:15:40;;;;;;;0.95;0.90;;;;;;;;;;5067563;28;20076;-83
2021/08/06 05:18:06;;;;;;;1.20;0.82;;;;;;;;;;5078092;28;20035;-84
2021/08/06 05:20:33;;;;;;;0.90;0.90;;;;;;;;;;5086417;28;20025;-83
2021/08/06 05:22:59;;;;;;;1.05;1.02;;;;;;;;;;5084952;28;20039;-84
2021/08/06 05:25:25;;;;;;;2.03;1.27;;;;;;;;;;5088070;28;20029;-82
2021/08/06 05:27:51;;;;;;;0.88;0.80;;;;;;;;;;5085264;28;21955;-83
2021/08/06 05:30:21;;;;;;;1.55;1.10;;;;;;;;;;5067563;28;20397;-84
2021/08/06 05:32:47;;;;;;;0.98;0.90;;;;;;;;;;5068462;28;20052;-83
2021/08/06 05:35:13;;;;;;;1.45;1.30;;;;;;;;;;5064878;28;20486;-84
2021/08/06 05:37:39;;;;;;;1.30;1.02;;;;;;;;;;5064659;28;20520;-83
2021/08/06 05:40:06;;;;;;;1.17;1.10;;;;;;;;;;5080779;28;20024;-84
2021/08/06 05:42:32;;;;;;;0.90;0.90;;;;;;;;;;5084310;28;20017;-82
2021/08/06 05:44:58;;;;;;;3.65;1.42;;;;;;;;;;5084981;28;20016;-81
2021/08/06 05:47:24;;;;;;;1.15;1.05;;;;;;;;;;5071500;28;20024;-84
2021/08/06 05:49:50;;;;;;;1.00;1.00;;;;;;;;;;5077783;28;20024;-84
2021/08/06 05:52:16;;;;;;;1.40;1.00;;;;;;;;;;5082871;28;20021;-83
2021/08/06 05:54:43;;;;;;;1.13;1.02;;;;;;;;;;5087087;28;20024;-84
2021/08/06 05:57:09;;;;;;;1.15;0.98;;;;;;;;;;5083299;28;20035;-84
2021/08/06 05:59:35;;;;;;;1.10;0.85;;;;;;;;;;5064909;28;20021;-83
2021/08/06 06:02:01;;;;;;;2.50;1.33;;;;;;;;;;5070891;28;20025;-83
2021/08/06 06:04:27;;;;;;;2.15;1.33;;;;;;;;;;5073513;28;20044;-83
2021/08/06 06:06:53;;;;;;;2.28;1.50;;;;;;;;;;5060017;28;20021;-83
2021/08/06 06:09:19;;;;;;;2.15;1.00;;;;;;;;;;5060419;28;20071;-83
2021/08/06 06:11:45;;;;;;;1.17;1.02;;;;;;;;;;5063080;28;20100;-84
2021/08/06 06:14:14;;;;;;;2.05;1.08;;;;;;;;;;5062374;28;20032;-84
2021/08/06 06:16:41;;;;;;;1.75;1.15;;;;;;;;;;5066411;28;20021;-85
2021/08/06 06:19:07;;;;;;;1.52;0.98;;;;;;;;;;5078338;28;20024;-84
2021/08/06 06:21:33;;;;;;;2.60;1.23;;;;;;;;;;5086452;28;20075;-84
2021/08/06 06:24:00;;;;;;;1.85;1.25;;;;;;;;;;5089725;28;20507;-83
2021/08/06 06:26:26;;;;;;;1.40;1.30;;;;;;;;;;5088699;28;20107;-86
2021/08/06 06:28:52;;;;;;;1.52;1.42;;;;;;;;;;5081720;28;20058;-84
2021/08/06 06:31:19;;;;;;;1.77;1.27;;;;;;;;;;5066054;28;20051;-84
2021/08/06 06:33:48;;;;;;;1.25;1.00;;;;;;;;;;5063203;28;20021;-84
2021/08/06 06:36:14;;;;;;;2.60;1.35;;;;;;;;;;5062982;28;20051;-85
2021/08/06 06:38:40;;;;;;;1.40;1.30;;;;;;;;;;5064560;28;20082;-84
2021/08/06 06:41:06;;;;;;;1.83;1.08;;;;;;;;;;5070244;28;20036;-81
2021/08/06 06:43:32;;;;;;;1.20;1.10;;;;;;;;;;5069778;28;20024;-84
2021/08/06 06:45:58;;;;;;;1.38;1.20;;;;;;;;;;5062216;28;20086;-83
2021/08/06 06:48:25;;;;;;;1.38;1.38;;;;;;;;;;5065104;28;20066;-85
2021/08/06 06:50:51;;;;;;;3.13;1.15;;;;;;;;;;5070468;28;20028;-85
2021/08/06 06:53:17;;;;;;;1.40;1.20;;;;;;;;;;5062340;28;20092;-84
2021/08/06 06:55:44;;;;;;;1.77;1.27;;;;;;;;;;5066768;28;20077;-85
2021/08/06 06:58:13;;;;;;;1.58;1.35;;;;;;;;;;5063813;28;20029;-83
2021/08/06 07:00:39;;;;;;;2.78;1.23;;;;;;;;;;5062370;28;20021;-83
2021/08/06 07:03:05;;;;;;;2.22;1.10;;;;;;;;;;5062363;28;20021;-83
2021/08/06 07:05:31;;;;;;;1.17;1.08;;;;;;;;;;5070870;28;20032;-82
2021/08/06 07:07:57;;;;;;;2.67;1.65;;;;;;;;;;5074594;28;20028;-84
2021/08/06 07:10:24;;;;;;;1.40;1.30;;;;;;;;;;5070364;28;20553;-83
2021/08/06 07:12:50;;;;;;;2.35;1.85;;;;;;;;;;5072152;28;20029;-82
2021/08/06 07:15:16;;;;;;;3.92;1.45;;;;;;;;;;5073413;28;20036;-83
2021/08/06 07:17:43;;;;;;;1.40;1.10;;;;;;;;;;5065566;28;20105;-83
2021/08/06 07:20:10;;;;;;;2.40;1.50;;;;;;;;;;5072191;28;20094;-82
2021/08/06 07:22:36;;;;;;;2.00;1.70;;;;;;;;;;5072056;28;20051;-81
2021/08/06 07:25:03;;;;;;;1.42;1.35;;;;;;;;;;5071485;28;20025;-84
2021/08/06 07:27:29;;;;;;;1.63;1.40;;;;;;;;;;5059430;28;20210;-84
2021/08/06 07:29:55;;;;;;;4.22;1.67;;;;;;;;;;5057397;28;20351;-84
2021/08/06 07:32:21;;;;;;;1.83;1.33;;;;;;;;;;5061431;28;20025;-83
2021/08/06 07:34:47;;;;;;;1.75;1.60;;;;;;;;;;5062505;28;20045;-84
2021/08/06 07:37:14;;;;;;;3.28;1.60;;;;;;;;;;5063559;28;20051;-85
2021/08/06 07:39:40;;;;;;;4.68;2.10;;;;;;;;;;5073107;28;20020;-84
2021/08/06 07:42:06;;;;;;;2.78;2.00;;;;;;;;;;5073722;28;20053;-86
2021/08/06 07:44:32;;;;;;;3.38;1.95;;;;;;;;;;5060628;28;20196;-85
2021/08/06 07:46:58;;;;;;;2.05;1.75;;;;;;;;;;5060569;28;20404;-84
2021/08/06 07:49:24;;;;;;;3.25;1.58;;;;;;;;;;5073028;28;20076;-86
2021/08/06 07:51:51;;;;;;;3.05;1.35;;;;;;;;;;5066599;28;20021;-85
2021/08/06 07:54:17;;;;;;;2.10;1.30;;;;;;;;;;5067150;28;20021;-83
2021/08/06 07:56:43;;;;;;;2.25;1.60;;;;;;;;;;5060764;28;20087;-84
2021/08/06 07:59:09;;;;;;;1.83;1.50;;;;;;;;;;5077265;28;20052;-81
2021/08/06 08:01:35;;;;;;;2.92;1.52;;;;;;;;;;5081946;28;20033;-84
2021/08/06 08:04:01;;;;;;;1.55;1.23;;;;;;;;;;5060841;28;20044;-86
2021/08/06 08:06:27;;;;;;;2.00;1.48;;;;;;;;;;5063156;28;20062;-82
2021/08/06 08:08:53;;;;;;;1.98;1.80;;;;;;;;;;5061412;28;20035;-83
2021/08/06 08:11:19;;;;;;;1.80;1.65;;;;;;;;;;5061371;28;20055;-82
2021/08/06 08:13:46;;;;;;;2.13;1.42;;;;;;;;;;5062072;28;20159;-83
2021/08/06 08:16:13;;;;;;;2.35;1.70;;;;;;;;;;5068309;28;20460;-82
2021/08/06 08:18:39;;;;;;;1.52;1.40;;;;;;;;;;5077687;28;20024;-84
2021/08/06 08:21:05;;;;;;;1.23;1.17;;;;;;;;;;5083264;28;20012;-84
2021/08/06 08:23:31;;;;;;;4.25;2.20;;;;;;;;;;5073486;28;20092;-84
2021/08/06 08:25:57;;;;;;;4.40;1.40;;;;;;;;;;5064236;28;20112;-85
2021/08/06 08:28:25;;;;;;;2.45;1.58;;;;;;;;;;5064215;28;20033;-85
2021/08/06 08:30:51;;;;;;;1.63;1.52;;;;;;;;;;5066951;28;20374;-85
2021/08/06 08:33:17;;;;;;;1.27;1.23;;;;;;;;;;5067995;28;20078;-84
2021/08/06 08:35:44;;;;;;;1.83;1.42;;;;;;;;;;5066111;28;20028;-85
2021/08/06 08:38:11;;;;;;;2.88;1.83;;;;;;;;;;5067446;28;20072;-86
2021/08/06 08:43:27;;;;;;;1.88;1.35;;;;;;;;;;5066556;28;20040;-85
2021/08/06 08:45:55;;;;;;;1.85;1.52;;;;;;;;;;5066055;28;20059;-85
2021/08/06 08:48:21;;;;;;;2.45;1.65;;;;;;;;;;5069725;28;20038;-85
2021/08/06 08:50:47;;;;;;;1.67;1.55;;;;;;;;;;5085870;28;20036;-83
2021/08/06 08:53:13;;;;;;;2.60;1.50;;;;;;;;;;5088316;28;20031;-84
2021/08/06 08:55:40;;;;;;;1.70;1.40;;;;;;;;;;5065579;28;20029;-84
2021/08/06 08:58:07;;;;;;;2.25;1.20;;;;;;;;;;5064331;28;20107;-83
2021/08/06 09:00:34;;;;;;;2.72;1.60;;;;;;;;;;5061948;28;20029;-84
2021/08/06 09:03:00;;;;;;;2.08;1.27;;;;;;;;;;5062067;28;20029;-84
2021/08/06 09:05:28;;;;;;;1.67;1.05;;;;;;;;;;5063922;28;20035;-86
2021/08/06 09:07:55;;;;;;;1.25;1.20;;;;;;;;;;5067413;28;20075;-84
2021/08/06 09:10:27;;;;;;;1.15;1.08;;;;;;;;;;5066302;28;20089;-84
2021/08/06 09:12:59;;;;;;;1.33;1.20;;;;;;;;;;5063982;28;20021;-83
2021/08/06 09:15:44;;;;;;;1.55;1.45;;;;;;;;;;5063978;28;20082;-82
2021/08/06 09:18:29;;;;;;;1.50;1.40;;;;;;;;;;5080864;28;20040;-84
2021/08/06 09:20:57;;;;;;;1.35;1.23;;;;;;;;;;5083780;28;20017;-85
2021/08/06 09:23:42;;;;;;;1.27;1.17;;;;;;;;;;5079809;28;20523;-85
2021/08/06 09:26:10;;;;;;;1.33;1.23;;;;;;;;;;5076341;28;20029;-84
2021/08/06 09:28:56;;;;;;;1.42;1.33;;;;;;;;;;5073993;28;20024;-82
2021/08/06 09:31:22;;;;;;;1.30;1.20;;;;;;;;;;5071549;28;20025;-82
2021/08/06 09:33:48;;;;;;;1.27;1.13;;;;;;;;;;5073374;28;20025;-81
2021/08/06 09:36:18;;;;;;;1.60;1.50;;;;;;;;;;5074549;28;20086;-82
2021/08/06 09:38:44;;;;;;;1.40;1.20;;;;;;;;;;5076441;28;20025;-81
2021/08/06 09:41:30;;;;;;;2.40;1.25;;;;;;;;;;5076987;28;20040;-81
2021/08/06 09:44:25;;;;;;;1.10;1.10;;;;;;;;;;5075871;28;20040;-82
2021/08/06 09:46:52;;;;;;;2.50;1.10;;;;;;;;;;5069122;28;20045;-80
2021/08/06 09:49:19;;;;;;;1.88;1.40;;;;;;;;;;5070186;28;20063;-84
2021/08/06 09:51:46;;;;;;;1.48;1.00;;;;;;;;;;5070542;28;20047;-83
2021/08/06 09:54:19;;;;;;;2.53;1.50;;;;;;;;;;5071855;28;20021;-83
2021/08/06 09:56:46;;;;;;;2.13;1.40;;;;;;;;;;5075049;28;20021;-82
2021/08/06 09:59:12;;;;;;;1.40;1.10;;;;;;;;;;5076242;28;20088;-82
2021/08/06 10:01:38;;;;;;;1.58;1.23;;;;;;;;;;5075719;28;20047;-82
2021/08/06 10:04:13;;;;;;;2.88;1.60;;;;;;;;;;5074158;28;20037;-83
2021/08/06 10:06:39;;;;;;;2.45;1.30;;;;;;;;;;5073992;28;20017;-82
2021/08/06 10:09:05;;;;;;;2.15;1.45;;;;;;;;;;5073084;28;20041;-83
2021/08/06 10:11:31;;;;;;;1.60;1.50;;;;;;;;;;5063949;28;20029;-84
2021/08/06 10:13:57;;;;;;;2.17;1.52;;;;;;;;;;5073852;28;20029;-84
2021/08/06 10:16:23;;;;;;;2.03;1.30;;;;;;;;;;5075139;28;20086;-83
2021/08/06 10:18:49;;;;;;;3.10;1.33;;;;;;;;;;5090181;28;20021;-83
2021/08/06 10:21:18;;;;;;;3.25;1.15;;;;;;;;;;5093848;28;20032;-84
2021/08/06 10:23:44;;;;;;;2.25;1.42;;;;;;;;;;5092658;28;20093;-83
2021/08/06 10:26:11;;;;;;;4.28;1.67;;;;;;;;;;5092703;28;20054;-84
2021/08/06 10:28:41;;;;;;;5.60;1.83;;;;;;;;;;5065154;28;20121;-83
2021/08/06 10:34:08;;;;;;;7.03;1.88;;;;;;;;;;5098858;22;20052;-81
2021/08/06 10:36:41;;;;;;;1.58;1.27;;;;;;;;;;5081683;28;20044;-82
2021/08/06 10:39:27;;;;;;;2.13;1.27;;;;;;;;;;5080325;28;20044;-81
2021/08/06 10:41:53;;;;;;;2.22;1.60;;;;;;;;;;5081068;28;20048;-81
2021/08/06 10:44:19;;;;;;;1.60;1.48;;;;;;;;;;5080992;28;20092;-81
2021/08/06 10:47:06;;;;;;;2.35;1.50;;;;;;;;;;5090206;28;20031;-80
2021/08/06 10:49:33;;;;;;;1.90;1.33;;;;;;;;;;5096235;28;20031;-81
2021/08/06 10:52:13;;;;;;;1.52;1.38;;;;;;;;;;5100128;28;20128;-81
2021/08/06 10:54:40;;;;;;;2.35;1.38;;;;;;;;;;5094817;28;20574;-81
2021/08/06 10:57:17;;;;;;;3.30;1.42;;;;;;;;;;5084965;28;20097;-80
2021/08/06 10:59:43;;;;;;;2.30;1.50;;;;;;;;;;5083181;28;20020;-81
2021/08/06 11:02:28;;;;;;;2.25;1.58;;;;;;;;;;5082552;28;20025;-81
2021/08/06 11:04:54;;;;;;;1.58;1.48;;;;;;;;;;5081333;28;20024;-81
2021/08/06 11:07:33;;;;;;;3.38;1.50;;;;;;;;;;5085977;28;20023;-81
2021/08/06 11:09:59;;;;;;;1.20;1.10;;;;;;;;;;5094641;28;20040;-81
2021/08/06 11:12:33;;;;;;;1.50;1.10;;;;;;;;;;5095318;28;20069;-81
2021/08/06 11:15:03;;;;;;;1.85;1.20;;;;;;;;;;5092152;28;20017;-79
2021/08/06 11:17:45;;;;;;;1.35;1.02;;;;;;;;;;5099073;28;20072;-80
2021/08/06 11:20:13;;;;;;;2.75;1.10;;;;;;;;;;5094905;28;20032;-80
2021/08/06 11:22:41;;;;;;;3.53;1.20;;;;;;;;;;5091540;28;20059;-80
2021/08/06 11:25:18;;;;;;;2.63;1.48;;;;;;;;;;5089681;28;20044;-80
2021/08/06 11:27:50;;;;;;;2.70;1.33;;;;;;;;;;5072107;28;20077;-80
2021/08/06 11:30:19;;;;;;;1.63;1.10;;;;;;;;;;5071806;28;20113;-80
2021/08/06 11:32:57;;;;;;;1.25;1.00;;;;;;;;;;5073236;28;20119;-80
2021/08/06 11:35:36;;;;;;;2.33;1.40;;;;;;;;;;5072098;28;20354;-81
2021/08/06 11:38:03;;;;;;;1.65;1.00;;;;;;;;;;5062465;28;20049;-81
2021/08/06 11:40:31;;;;;;;2.55;1.10;;;;;;;;;;5062388;28;20077;-81
2021/08/06 11:42:57;;;;;;;3.17;1.15;;;;;;;;;;5062805;28;20029;-81
2021/08/06 11:45:26;;;;;;;3.63;1.70;;;;;;;;;;5061565;28;20025;-81
2021/08/06 11:47:54;;;;;;;6.00;1.88;;;;;;;;;;5084860;28;20108;-81
2021/08/06 11:50:35;;;;;;;1.10;0.95;;;;;;;;;;5100323;28;20024;-81
2021/08/06 11:53:01;;;;;;;2.83;1.65;;;;;;;;;;5102045;28;20088;-82
2021/08/06 11:55:28;;;;;;;1.40;1.30;;;;;;;;;;5104016;28;20097;-81
2021/08/06 11:57:55;;;;;;;1.73;1.20;;;;;;;;;;5087486;28;20009;-80
2021/08/06 12:00:29;;;;;;;2.50;1.30;;;;;;;;;;5086147;28;20039;-81
2021/08/06 12:03:01;;;;;;;1.13;0.98;;;;;;;;;;5085630;28;20553;-81
2021/08/06 12:05:27;;;;;;;1.35;1.25;;;;;;;;;;5086518;28;20021;-81
2021/08/06 12:07:53;;;;;;;1.98;1.30;;;;;;;;;;5088152;28;20025;-81
2021/08/06 12:10:24;;;;;;;1.98;1.20;;;;;;;;;;5085923;28;20025;-80
2021/08/06 12:12:50;;;;;;;3.25;1.27;;;;;;;;;;5085577;28;20117;-81
2021/08/06 12:15:23;;;;;;;2.15;1.40;;;;;;;;;;5086573;28;20028;-80
2021/08/06 12:18:08;;;;;;;4.65;1.40;;;;;;;;;;5097793;28;20607;-80
2021/08/06 12:20:38;;;;;;;1.58;1.38;;;;;;;;;;5084640;28;20044;-82
2021/08/06 12:23:04;;;;;;;1.17;1.08;;;;;;;;;;5084849;28;20032;-82
2021/08/06 12:25:32;;;;;;;2.40;1.25;;;;;;;;;;5085208;28;20017;-82
2021/08/06 12:28:00;;;;;;;3.72;1.25;;;;;;;;;;5085704;28;20097;-82
2021/08/06 12:30:27;;;;;;;1.30;1.10;;;;;;;;;;5090424;28;20411;-80
2021/08/06 12:32:53;;;;;;;1.35;1.23;;;;;;;;;;5086878;28;20056;-81
2021/08/06 12:35:20;;;;;;;2.80;1.40;;;;;;;;;;5085577;28;20374;-81
2021/08/06 12:37:46;;;;;;;3.22;1.30;;;;;;;;;;5085048;28;20377;-81
2021/08/06 12:40:13;;;;;;;3.47;1.42;;;;;;;;;;5085058;28;20044;-81
2021/08/06 12:42:39;;;;;;;4.68;1.25;;;;;;;;;;5086732;28;20025;-81
2021/08/06 12:45:05;;;;;;;1.70;1.13;;;;;;;;;;5086586;28;20158;-83
2021/08/06 12:47:47;;;;;;;3.20;1.75;;;;;;;;;;5098300;28;20111;-81
2021/08/06 12:50:23;;;;;;;3.22;1.50;;;;;;;;;;5104415;28;20369;-81
2021/08/06 12:53:02;;;;;;;2.33;1.40;;;;;;;;;;5092017;28;20017;-81
2021/08/06 12:55:30;;;;;;;2.15;1.40;;;;;;;;;;5092867;28;20068;-80
2021/08/06 12:58:02;;;;;;;1.38;1.27;;;;;;;;;;5096706;28;20024;-80
2021/08/06 13:00:33;;;;;;;3.53;1.52;;;;;;;;;;5093516;28;20032;-81
2021/08/06 13:03:07;;;;;;;1.77;1.17;;;;;;;;;;5086376;28;20491;-81
2021/08/06 13:05:35;;;;;;;3.00;1.48;;;;;;;;;;5085109;28;20032;-81
2021/08/06 13:08:11;;;;;;;2.95;1.70;;;;;;;;;;5085408;28;20020;-80
2021/08/06 13:10:37;;;;;;;1.65;1.20;;;;;;;;;;5084847;28;20067;-79
2021/08/06 13:13:04;;;;;;;1.80;1.33;;;;;;;;;;5089975;28;20025;-80
2021/08/06 13:15:30;;;;;;;1.45;1.25;;;;;;;;;;5091178;28;20050;-81
2021/08/06 13:17:56;;;;;;;1.80;1.20;;;;;;;;;;5102931;28;20123;-81
2021/08/06 13:20:22;;;;;;;1.70;1.25;;;;;;;;;;5079985;28;20025;-81
2021/08/06 13:22:48;;;;;;;1.73;1.20;;;;;;;;;;5075142;28;20028;-81
2021/08/06 13:25:15;;;;;;;2.15;1.50;;;;;;;;;;5074902;28;20008;-81
2021/08/06 13:27:41;;;;;;;1.48;1.30;;;;;;;;;;5070002;28;20029;-82
2021/08/06 13:30:08;;;;;;;4.10;1.25;;;;;;;;;;5076935;28;20118;-81
2021/08/06 13:32:36;;;;;;;2.50;1.38;;;;;;;;;;5085803;28;20024;-80
2021/08/06 13:35:02;;;;;;;1.63;1.40;;;;;;;;;;5084856;28;20396;-83
2021/08/06 13:37:28;;;;;;;2.13;1.40;;;;;;;;;;5091258;28;20045;-82
2021/08/06 13:39:55;;;;;;;3.90;1.33;;;;;;;;;;5085051;28;20094;-82
2021/08/06 13:42:21;;;;;;;2.83;1.38;;;;;;;;;;5070546;28;20047;-82
2021/08/06 13:44:47;;;;;;;7.55;1.38;;;;;;;;;;5067325;28;20032;-81
2021/08/06 13:47:13;;;;;;;1.23;1.15;;;;;;;;;;5085949;28;20056;-81
2021/08/06 13:49:41;;;;;;;1.83;1.52;;;;;;;;;;5085186;28;20555;-81
2021/08/06 13:52:07;;;;;;;2.08;1.42;;;;;;;;;;5087894;28;20078;-81
2021/08/06 13:54:33;;;;;;;1.20;1.05;;;;;;;;;;5084491;28;20268;-82
2021/08/06 13:56:59;;;;;;;1.52;1.10;;;;;;;;;;5085637;28;20029;-81
2021/08/06 13:59:26;;;;;;;2.22;1.20;;;;;;;;;;5087419;28;20031;-81
2021/08/06 14:01:53;;;;;;;4.72;2.05;;;;;;;;;;5070920;28;20049;-81
2021/08/06 14:04:19;;;;;;;1.35;1.10;;;;;;;;;;5066581;28;20052;-82
2021/08/06 14:06:45;;;;;;;2.13;1.20;;;;;;;;;;5065157;28;20363;-81
2021/08/06 14:09:11;;;;;;;1.30;1.20;;;;;;;;;;5064848;28;20036;-80
2021/08/06 14:11:38;;;;;;;1.23;1.08;;;;;;;;;;5070681;28;20088;-80
2021/08/06 14:14:04;;;;;;;3.88;1.23;;;;;;;;;;5070106;28;20067;-82
2021/08/06 14:16:30;;;;;;;4.03;1.27;;;;;;;;;;5077038;28;20440;-82
2021/08/06 14:18:56;;;;;;;1.10;1.00;;;;;;;;;;5096585;28;20048;-81
2021/08/06 14:21:22;;;;;;;1.30;0.98;;;;;;;;;;5099031;28;20249;-82
2021/08/06 14:23:49;;;;;;;1.42;1.20;;;;;;;;;;5084876;28;20029;-82
2021/08/06 14:26:15;;;;;;;2.70;1.50;;;;;;;;;;5084356;28;20058;-80
2021/08/06 14:28:42;;;;;;;2.47;1.10;;;;;;;;;;5083561;28;20115;-81
2021/08/06 14:31:10;;;;;;;1.45;1.02;;;;;;;;;;5083485;28;20027;-81
2021/08/06 14:33:39;;;;;;;1.65;1.20;;;;;;;;;;5083778;28;20111;-81
2021/08/06 14:36:07;;;;;;;2.10;1.02;;;;;;;;;;5083385;28;20028;-82
2021/08/06 14:38:34;;;;;;;3.30;1.48;;;;;;;;;;5085046;28;20035;-83
2021/08/06 14:41:00;;;;;;;2.65;1.30;;;;;;;;;;5084536;28;20047;-81
2021/08/06 14:43:26;;;;;;;2.70;1.23;;;;;;;;;;5083486;28;20037;-80
2021/08/06 14:45:52;;;;;;;1.23;1.13;;;;;;;;;;5084123;28;20028;-81
2021/08/06 14:48:21;;;;;;;4.18;1.58;;;;;;;;;;5093833;28;20080;-81
2021/08/06 14:50:50;;;;;;;2.83;1.58;;;;;;;;;;5104335;28;20036;-81
2021/08/06 14:53:16;;;;;;;2.40;1.25;;;;;;;;;;5090641;28;20023;-81